createdAt,value
2023-05-13T06:45:30.322Z,3.90
2023-05-13T06:47:57.925Z,4.60
2023-05-13T06:50:25.548Z,4.23
2023-05-13T06:52:53.056Z,4.10
2023-05-13T06:55:20.642Z,4.40
2023-05-13T06:57:48.367Z,4.33
2023-05-13T07:00:16.873Z,3.90
2023-05-13T07:02:45.797Z,4.23
2023-05-13T07:05:13.611Z,3.90
2023-05-13T07:07:42.229Z,3.57
2023-05-13T07:10:10.649Z,3.60
2023-05-13T07:12:38.289Z,3.40
2023-05-13T07:15:07.017Z,3.13
2023-05-13T07:17:34.765Z,2.87
2023-05-13T07:20:03.786Z,3.13
2023-05-13T07:22:31.892Z,2.63
2023-05-13T07:24:59.568Z,2.90
2023-05-13T07:27:27.260Z,3.03
2023-05-13T07:29:55.255Z,2.60
2023-05-13T07:32:22.788Z,3.20
2023-05-13T07:34:50.345Z,2.77
2023-05-13T07:37:19.270Z,2.70
2023-05-13T07:39:47.074Z,2.80
2023-05-13T07:42:15.264Z,2.90
2023-05-13T07:44:42.797Z,2.40
2023-05-13T07:47:10.410Z,2.53
2023-05-13T07:49:38.012Z,3.03
2023-05-13T07:52:05.968Z,2.30
2023-05-13T07:54:34.876Z,2.50
2023-05-13T07:57:02.774Z,2.53
2023-05-13T07:59:30.471Z,2.17
2023-05-13T08:01:58.010Z,2.40
2023-05-13T08:04:26.023Z,2.40
2023-05-13T08:06:53.771Z,2.47
2023-05-13T08:09:21.383Z,2.00
2023-05-13T08:11:50.289Z,2.37
2023-05-13T08:14:17.771Z,2.33
2023-05-13T08:16:45.424Z,1.97
2023-05-13T08:19:14.677Z,1.83
2023-05-13T08:21:42.269Z,1.87
2023-05-13T08:24:09.856Z,2.23
2023-05-13T08:26:38.205Z,2.27
2023-05-13T08:29:08.588Z,2.07
2023-05-13T08:31:36.180Z,2.10
2023-05-13T08:34:03.701Z,2.23
2023-05-13T08:36:31.207Z,2.87
2023-05-13T08:38:58.752Z,2.10
2023-05-13T08:41:26.272Z,2.13
2023-05-13T08:43:55.433Z,1.83
2023-05-13T08:46:25.704Z,1.93
2023-05-13T08:48:53.368Z,2.07
2023-05-13T08:51:20.872Z,2.23
2023-05-13T08:53:48.952Z,2.23
2023-05-13T08:56:16.627Z,1.87
2023-05-13T08:58:44.127Z,2.23
2023-05-13T09:01:12.060Z,1.93
2023-05-13T09:03:48.652Z,1.53
2023-05-13T09:06:16.396Z,1.80
2023-05-13T09:08:44.084Z,1.80
2023-05-13T09:11:11.590Z,1.40
2023-05-13T09:13:39.154Z,1.80
2023-05-13T09:16:07.261Z,1.60
2023-05-13T09:18:35.107Z,1.80
2023-05-13T09:21:24.641Z,1.60
2023-05-13T09:23:57.275Z,1.67
2023-05-13T09:26:28.487Z,1.50
2023-05-13T09:29:15.513Z,1.40
2023-05-13T09:31:43.310Z,1.67
2023-05-13T09:34:10.928Z,1.47
2023-05-13T09:36:39.852Z,1.80
2023-05-13T09:39:07.438Z,1.60
2023-05-13T09:41:35.908Z,1.93
2023-05-13T09:44:04.132Z,1.40
2023-05-13T09:46:32.458Z,1.30
2023-05-13T09:49:00.336Z,1.67
2023-05-13T09:51:28.246Z,1.33
2023-05-13T09:54:03.991Z,1.53
2023-05-13T09:56:32.081Z,1.87
2023-05-13T09:58:59.784Z,1.40
2023-05-13T10:01:28.513Z,1.50
2023-05-13T10:03:56.903Z,1.60
2023-05-13T10:06:26.475Z,1.63
2023-05-13T10:08:55.116Z,1.30
2023-05-13T10:11:24.674Z,1.43
2023-05-13T10:13:58.223Z,1.70
2023-05-13T10:16:26.388Z,1.70
2023-05-13T10:18:54.108Z,1.50
2023-05-13T10:21:21.747Z,1.57
2023-05-13T10:23:51.876Z,2.17
2023-05-13T10:26:20.908Z,1.70
2023-05-13T10:28:50.380Z,1.90
2023-05-13T10:31:18.508Z,1.80
2023-05-13T10:33:46.671Z,1.70
2023-05-13T10:36:51.653Z,1.53
2023-05-13T10:39:28.895Z,1.30
2023-05-13T10:42:40.281Z,1.80
2023-05-13T10:45:10.280Z,2.00
2023-05-13T10:47:40.202Z,1.70
2023-05-13T10:50:09.614Z,1.77
2023-05-13T10:52:44.587Z,1.67
2023-05-13T10:55:19.238Z,1.47
2023-05-13T10:58:09.414Z,1.50
2023-05-13T11:00:39.208Z,1.40
2023-05-13T11:03:11.118Z,1.40
2023-05-13T11:05:40.645Z,1.70
2023-05-13T11:08:08.287Z,1.60
2023-05-13T11:10:36.342Z,1.80
2023-05-13T11:13:22.427Z,3.13
2023-05-13T11:15:52.247Z,1.60
2023-05-13T11:18:20.179Z,2.13
2023-05-13T11:20:52.464Z,1.50
2023-05-13T11:23:20.951Z,1.20
2023-05-13T11:25:48.962Z,1.20
2023-05-13T11:28:18.432Z,1.50
2023-05-13T11:30:56.397Z,2.30
2023-05-13T11:33:24.145Z,1.30
2023-05-13T11:35:56.051Z,1.20
2023-05-13T11:38:24.891Z,1.57
2023-05-13T11:40:53.300Z,1.70
2023-05-13T11:43:22.494Z,1.20
2023-05-13T11:45:50.461Z,2.17
2023-05-13T11:48:23.538Z,1.30
2023-05-13T11:50:52.142Z,1.60
2023-05-13T11:53:23.299Z,2.37
2023-05-13T11:55:51.598Z,1.13
2023-05-13T11:58:19.271Z,1.77
2023-05-13T12:00:46.839Z,1.60
2023-05-13T12:03:16.316Z,1.70
2023-05-13T12:05:45.988Z,1.40
2023-05-13T12:08:13.529Z,11.80
2023-05-13T12:10:43.826Z,1.90
2023-05-13T12:13:11.503Z,1.37
2023-05-13T12:15:39.266Z,1.23
2023-05-13T12:18:07.423Z,1.03
2023-05-13T12:20:34.976Z,1.20
2023-05-13T12:23:04.552Z,1.10
2023-05-13T12:25:43.413Z,1.40
2023-05-13T12:28:13.263Z,1.00
2023-05-13T12:30:42.428Z,1.30
2023-05-13T12:33:14.595Z,1.57
2023-05-13T12:35:42.349Z,1.57
2023-05-13T12:38:16.117Z,2.20
2023-05-13T12:40:43.741Z,1.15
2023-05-13T12:43:12.391Z,1.20
2023-05-13T12:45:44.003Z,1.20
2023-05-13T12:48:12.466Z,1.37
2023-05-13T12:50:40.122Z,1.50
2023-05-13T12:53:07.673Z,1.27
2023-05-13T12:55:39.802Z,1.77
2023-05-13T12:58:10.857Z,1.83
2023-05-13T13:00:38.626Z,1.17
2023-05-13T13:03:06.396Z,0.90
2023-05-13T13:05:34.108Z,1.37
2023-05-13T13:08:02.347Z,0.97
2023-05-13T13:10:29.964Z,1.63
2023-05-13T13:12:58.814Z,1.23
2023-05-13T13:15:26.342Z,1.13
2023-05-13T13:17:53.933Z,1.23
2023-05-13T13:20:22.338Z,1.53
2023-05-13T13:22:49.869Z,1.30
2023-05-13T13:25:17.406Z,3.20
2023-05-13T13:27:45.177Z,1.20
2023-05-13T13:30:15.420Z,4.70
2023-05-13T13:32:42.988Z,1.23
2023-05-13T13:35:11.234Z,2.00
2023-05-13T13:37:38.790Z,1.80
2023-05-13T13:40:07.455Z,1.40
2023-05-13T13:42:44.109Z,1.23
2023-05-13T13:45:14.360Z,1.20
2023-05-13T13:47:42.271Z,1.20
2023-05-13T13:50:10.698Z,1.13
2023-05-13T13:52:38.182Z,1.33
2023-05-13T13:55:06.681Z,1.53
2023-05-13T13:57:34.232Z,0.93
2023-05-13T14:00:01.792Z,1.70
2023-05-13T14:02:30.814Z,1.67
2023-05-13T14:04:58.513Z,1.50
2023-05-13T14:07:26.234Z,2.20
2023-05-13T14:09:53.706Z,1.83
2023-05-13T14:12:21.251Z,2.03
2023-05-13T14:14:48.782Z,1.83
2023-05-13T14:17:16.267Z,2.07
2023-05-13T14:19:45.101Z,2.10
2023-05-13T14:22:12.765Z,2.40
2023-05-13T14:24:40.570Z,2.13
2023-05-13T14:27:08.055Z,1.70
2023-05-13T14:29:35.596Z,1.73
2023-05-13T14:32:03.786Z,1.97
2023-05-13T14:34:31.398Z,1.67
2023-05-13T14:37:00.271Z,2.40
2023-05-13T14:39:28.096Z,2.30
2023-05-13T14:41:55.899Z,2.70
2023-05-13T14:44:23.403Z,2.30
2023-05-13T14:46:51.231Z,2.40
2023-05-13T14:49:18.739Z,2.50
2023-05-13T14:51:46.290Z,2.40
2023-05-13T14:54:15.111Z,1.90
2023-05-13T14:56:42.687Z,2.33
2023-05-13T14:59:10.270Z,2.53
2023-05-13T15:01:38.335Z,2.20
2023-05-13T15:04:06.323Z,2.40
2023-05-13T15:06:33.934Z,2.50
2023-05-13T15:09:01.467Z,2.57
2023-05-13T15:11:30.874Z,3.20
2023-05-13T15:13:58.420Z,2.53
2023-05-13T15:16:26.068Z,2.60
2023-05-13T15:18:53.606Z,2.60
2023-05-13T15:21:21.194Z,2.90
2023-05-13T15:23:48.724Z,2.87
2023-05-13T15:26:16.205Z,2.90
2023-05-13T15:28:45.048Z,4.17
2023-05-13T15:31:12.580Z,3.87
2023-05-13T15:33:40.112Z,3.13
2023-05-13T15:36:09.802Z,3.67
2023-05-13T15:38:37.372Z,3.00
2023-05-13T15:41:05.188Z,3.27
2023-05-13T15:43:34.097Z,2.80
2023-05-13T15:46:03.100Z,3.10
2023-05-13T15:48:30.875Z,3.63
2023-05-13T15:50:58.424Z,3.40
2023-05-13T15:53:25.982Z,3.77
2023-05-13T15:55:53.511Z,3.60
2023-05-13T15:58:21.437Z,4.67
2023-05-13T16:00:48.938Z,4.20
2023-05-13T16:03:18.092Z,4.80
2023-05-13T16:05:45.851Z,4.87
2023-05-13T16:08:13.408Z,5.00
2023-05-13T16:10:41.068Z,5.67
2023-05-13T16:13:08.637Z,5.43
2023-05-13T16:15:36.167Z,5.33
2023-05-13T16:18:03.802Z,5.60
2023-05-13T16:20:32.728Z,6.33
2023-05-13T16:23:00.264Z,6.47
2023-05-13T16:25:27.751Z,7.00
2023-05-13T16:27:56.519Z,6.40
2023-05-13T16:30:24.359Z,6.90
2023-05-13T16:32:54.289Z,6.53
2023-05-13T16:35:22.098Z,7.30
2023-05-13T16:37:51.358Z,6.40
2023-05-13T16:40:19.044Z,6.00
2023-05-13T16:42:47.284Z,7.20
2023-05-13T16:45:15.083Z,6.53
2023-05-13T16:47:42.632Z,7.17
2023-05-13T16:50:10.882Z,7.47
2023-05-13T16:52:38.496Z,7.50
2023-05-13T16:55:08.324Z,6.70
2023-05-13T16:57:35.858Z,6.43
2023-05-13T17:00:03.548Z,7.03
2023-05-13T17:02:31.362Z,7.33
2023-05-13T17:04:58.927Z,7.43
2023-05-13T17:07:26.417Z,7.97
2023-05-13T17:09:54.151Z,7.73
2023-05-13T17:12:23.156Z,7.57
2023-05-13T17:14:50.698Z,8.60
2023-05-13T17:17:18.261Z,7.53
2023-05-13T17:19:45.894Z,7.67
2023-05-13T17:22:13.397Z,7.30
2023-05-13T17:24:41.121Z,8.37
2023-05-13T17:27:08.898Z,8.00
2023-05-13T17:29:37.759Z,8.23
2023-05-13T17:32:05.862Z,8.27
2023-05-13T17:34:33.354Z,8.50
2023-05-13T17:37:00.861Z,7.93
2023-05-13T17:39:28.413Z,7.43
2023-05-13T17:41:55.944Z,8.10
2023-05-13T17:44:23.927Z,8.10
2023-05-13T17:46:52.962Z,9.03
2023-05-13T17:49:20.725Z,7.47
2023-05-13T17:51:48.275Z,6.87
2023-05-13T17:54:15.776Z,8.63
2023-05-13T17:56:43.276Z,8.40
2023-05-13T17:59:11.708Z,7.83
2023-05-13T18:01:39.219Z,8.37
2023-05-13T18:04:08.173Z,8.33
2023-05-13T18:06:35.644Z,7.83
2023-05-13T18:09:03.452Z,7.63
2023-05-13T18:11:31.577Z,8.23
2023-05-13T18:13:59.133Z,8.90
2023-05-13T18:16:26.655Z,7.33
2023-05-13T18:18:57.274Z,8.07
2023-05-13T18:21:28.844Z,8.40
2023-05-13T18:23:56.983Z,8.33
2023-05-13T18:26:24.498Z,7.53
2023-05-13T18:28:52.028Z,7.63
2023-05-13T18:31:19.619Z,8.40
2023-05-13T18:33:47.204Z,8.30
2023-05-13T18:36:14.712Z,8.47
2023-05-13T18:38:45.831Z,7.87
2023-05-13T18:41:13.369Z,7.43
2023-05-13T18:43:40.874Z,7.67
2023-05-13T18:46:08.743Z,7.90
2023-05-13T18:48:36.367Z,7.97
2023-05-13T18:51:04.129Z,8.20
2023-05-13T18:53:31.623Z,8.20
2023-05-13T18:56:00.503Z,8.30
2023-05-13T18:58:28.565Z,7.60
2023-05-13T19:00:56.156Z,7.90
2023-05-13T19:03:23.821Z,8.00
2023-05-13T19:05:52.118Z,7.57
2023-05-13T19:08:19.712Z,8.80
2023-05-13T19:10:47.248Z,8.83
2023-05-13T19:13:19.656Z,8.83
2023-05-13T19:15:47.203Z,9.10
2023-05-13T19:18:14.748Z,8.80
2023-05-13T19:20:43.498Z,8.77
2023-05-13T19:23:11.020Z,8.93
2023-05-13T19:25:42.034Z,8.80
2023-05-13T19:28:09.814Z,8.80
2023-05-13T19:30:38.828Z,8.80
2023-05-13T19:33:06.829Z,9.93
2023-05-13T19:35:35.032Z,8.17
2023-05-13T19:38:03.001Z,8.83
2023-05-13T19:40:30.533Z,7.70
2023-05-13T19:42:58.072Z,8.17
2023-05-13T19:45:25.819Z,7.43
2023-05-13T19:47:56.235Z,8.53
2023-05-13T19:50:24.081Z,7.80
2023-05-13T19:52:52.627Z,9.33
2023-05-13T19:55:20.334Z,9.67
2023-05-13T19:57:48.425Z,8.27
2023-05-13T20:00:16.833Z,7.73
2023-05-13T20:02:44.479Z,8.33
2023-05-13T20:05:13.362Z,7.87
2023-05-13T20:07:41.060Z,8.80
2023-05-13T20:10:10.047Z,7.90
2023-05-13T20:12:37.632Z,7.93
2023-05-13T20:15:06.642Z,7.90
2023-05-13T20:17:34.292Z,8.53
2023-05-13T20:20:01.994Z,8.30
2023-05-13T20:22:30.961Z,8.60
2023-05-13T20:24:58.938Z,8.10
2023-05-13T20:27:26.454Z,9.27
2023-05-13T20:29:55.607Z,8.73
2023-05-13T20:32:24.918Z,8.70
2023-05-13T20:34:54.301Z,8.87
2023-05-13T20:37:23.948Z,8.33
2023-05-13T20:39:54.262Z,8.53
2023-05-13T20:42:22.746Z,8.17
2023-05-13T20:44:50.698Z,8.10
2023-05-13T20:47:18.410Z,8.50
2023-05-13T20:49:46.471Z,7.97
2023-05-13T20:52:14.071Z,7.73
2023-05-13T20:54:42.177Z,8.53
2023-05-13T20:57:11.191Z,8.47
2023-05-13T20:59:38.691Z,7.77
2023-05-13T21:02:06.444Z,8.77
2023-05-13T21:04:33.925Z,8.20
2023-05-13T21:07:01.459Z,7.40
2023-05-13T21:09:29.004Z,9.13
2023-05-13T21:11:56.562Z,9.80
2023-05-13T21:14:25.548Z,10.07
2023-05-13T21:16:53.046Z,8.83
2023-05-13T21:19:21.911Z,10.03
2023-05-13T21:21:49.415Z,8.57
2023-05-13T21:24:18.012Z,8.23
2023-05-13T21:26:45.534Z,8.40
2023-05-13T21:29:13.097Z,8.80
2023-05-13T21:31:42.548Z,8.70
2023-05-13T21:34:10.173Z,8.57
2023-05-13T21:36:38.931Z,7.50
2023-05-13T21:39:06.784Z,7.40
2023-05-13T21:41:34.381Z,8.83
2023-05-13T21:44:01.896Z,8.47
2023-05-13T21:46:29.560Z,7.40
2023-05-13T21:48:59.621Z,7.90
2023-05-13T21:51:27.295Z,7.50
2023-05-13T21:53:54.806Z,7.80
2023-05-13T21:56:22.503Z,8.07
2023-05-13T21:58:50.567Z,7.73
2023-05-13T22:01:19.253Z,7.47
2023-05-13T22:03:46.799Z,7.83
2023-05-13T22:06:15.718Z,7.27
2023-05-13T22:08:43.270Z,8.67
2023-05-13T22:11:11.281Z,8.13
2023-05-13T22:13:39.080Z,7.77
2023-05-13T22:16:06.760Z,8.40
2023-05-13T22:21:01.747Z,7.37
2023-05-13T22:23:30.997Z,7.40
2023-05-13T22:25:58.494Z,7.50
2023-05-13T22:28:26.062Z,8.37
2023-05-13T22:30:53.728Z,8.33
2023-05-13T22:33:21.286Z,8.33
2023-05-13T22:35:48.817Z,7.83
2023-05-13T22:38:16.349Z,7.77
2023-05-13T22:40:45.221Z,7.97
2023-05-13T22:43:12.696Z,7.47
2023-05-13T22:45:40.521Z,7.50
2023-05-13T22:48:08.300Z,7.87
2023-05-13T22:50:35.858Z,8.10
2023-05-13T22:53:03.685Z,7.70
2023-05-13T22:55:31.203Z,7.43
2023-05-13T22:58:00.091Z,8.33
2023-05-13T23:00:27.655Z,7.13
2023-05-13T23:02:55.908Z,8.67
2023-05-13T23:05:23.456Z,8.50
2023-05-13T23:07:51.135Z,8.17
2023-05-13T23:10:18.743Z,7.97
2023-05-13T23:12:46.270Z,7.93
2023-05-13T23:15:16.063Z,8.17
2023-05-13T23:17:43.746Z,8.53
2023-05-13T23:20:12.123Z,8.93
2023-05-13T23:22:39.660Z,8.17
2023-05-13T23:25:09.067Z,8.50
2023-05-13T23:27:36.603Z,7.57
2023-05-13T23:30:04.630Z,7.43
2023-05-13T23:32:33.448Z,8.60
2023-05-13T23:35:01.317Z,7.23
2023-05-13T23:37:28.864Z,7.33
2023-05-13T23:39:56.339Z,7.07
2023-05-13T23:42:23.837Z,7.33
2023-05-13T23:44:51.957Z,6.87
2023-05-13T23:47:19.540Z,7.40
2023-05-13T23:49:48.442Z,7.87
2023-05-13T23:52:16.871Z,7.17
2023-05-13T23:54:44.391Z,7.50
2023-05-13T23:57:11.931Z,7.50
2023-05-13T23:59:40.195Z,7.80
